In Rescue
 
Open Full Screen Window  High Contrast Mode
Wind Gusting 00 knots
06
June 22, 2024 10:06 PM EDT
Present Weather: Light Rain
Weather Information
Wind Direction
  150 °
Wind Speed
  06 kt (7 mph)
Wind Gust
  00 kt (0 mph)
Altimeter
29.72 in
Visibility
10 SM
Temperature
23° C
73° F
Dewpoint
20° C
68° F
Humidity
83%
Sky Condition
Overcast @ 9,000 ft
Broken @ 6,500 ft
VFR

METAR KBAX 230206Z AUTO 15006KT 10SM -RA BKN065 OVC090 23/20 A2972 RMK AO2 T02340200

FAA Disclaimer: The data displayed is for advisory purposes only and is not to be used for flight planning or operations.